Time;durP1;ratioP1;P1;durP2;ratioP2;P2;SDS_P1;SDS_P2;PMS_P1;PMS_P2;Temp;Humidity;BMP_temperature;BMP_pressure;BME280_temperature;BME280_humidity;BME280_pressure;Samples;Min_cycle;Max_cycle;Signal;HPM_P1;HPM_P2
2021/04/17 13:41:11;;;;;;;;;;;;;;;17.54;51.83;100934.03;5795018;23;1756;-64
2021/04/17 13:43:39;;;;;;;;;;;;;;;17.53;52.67;100934.13;4818680;29;1799;-64
2021/04/17 13:46:06;;;;;;;;;;;;;;;17.55;52.50;100925.25;4819294;29;1348;-62
2021/04/17 13:48:33;;;;;;;;;;;;;;;17.44;52.48;100928.38;4819558;29;789;-64
2021/04/17 13:51:00;;;;;;;;;;;;;;;17.49;52.27;100934.28;4818986;29;1285;-66
2021/04/17 13:53:26;;;;;;;;;;;;;;;17.51;52.63;100936.81;4819139;29;894;-64
2021/04/17 13:55:53;;;;;;;;;;;;;;;17.53;52.70;100934.97;4817568;29;1241;-65
2021/04/17 13:58:20;;;;;;;;;;;;;;;17.49;53.01;100933.41;4817371;29;1223;-64
2021/04/17 14:00:47;;;;;;;;;;;;;;;17.49;53.01;100938.69;4819108;29;1915;-64
2021/04/17 14:03:14;;;;;;;;;;;;;;;17.45;53.23;100937.97;4819075;29;1267;-64
2021/04/17 14:05:41;;;;;;;;;;;;;;;17.43;53.35;100933.72;4818910;29;805;-65
2021/04/17 14:08:07;;;;;;;;;;;;;;;17.39;53.64;100933.00;4817390;29;1392;-65
2021/04/17 14:10:34;;;;;;;;;;;;;;;17.37;53.59;100937.50;4818907;29;875;-64
2021/04/17 14:13:02;;;;;;;;;;;;;;;17.33;53.70;100938.56;4818358;29;1559;-64
2021/04/17 14:15:31;;;;;;;;;;;;;;;17.33;53.78;100935.06;4812032;29;848;-64
2021/04/17 14:17:57;;;;;;;;;;;;;;;17.31;53.92;100935.16;4819227;29;1320;-64
2021/04/17 14:20:25;;;;;;;;;;;;;;;17.30;54.02;100933.44;4818914;29;1911;-64
2021/04/17 14:22:52;;;;;;;;;;;;;;;17.28;53.93;100935.31;4803959;29;1418;-66
2021/04/17 14:25:19;;;;;;;;;;;;;;;17.29;54.05;100936.16;4820443;29;825;-63
2021/04/17 14:28:07;;;;;;;;;;;;;;;17.27;54.10;100951.16;4806027;29;1369;-64
2021/04/17 14:30:34;;;;;;;;;;;;;;;17.26;54.18;100936.31;4820283;29;973;-66
2021/04/17 14:33:00;;;;;;;;;;;;;;;17.24;54.24;100938.13;4820208;29;1431;-63
2021/04/17 14:35:28;;;;;;;;;;;;;;;17.22;54.16;100945.25;4818860;29;812;-64
2021/04/17 14:38:14;;;;;;;;;;;;;;;17.22;54.02;100943.50;4820209;29;1330;-64
2021/04/17 14:40:41;;;;;;;;;;;;;;;17.18;54.37;100949.81;4818707;29;1978;-65
2021/04/17 14:43:08;;;;;;;;;;;;;;;17.18;54.23;100948.97;4818453;29;1403;-65
2021/04/17 14:45:35;;;;;;;;;;;;;;;17.18;54.13;100954.22;4820010;29;1304;-64
2021/04/17 14:48:01;;;;;;;;;;;;;;;17.17;54.08;100952.53;4820164;29;1315;-64
2021/04/17 14:50:28;;;;;;;;;;;;;;;17.17;54.15;100949.91;4818369;29;1259;-62
2021/04/17 14:53:15;;;;;;;;;;;;;;;17.16;54.20;100951.69;4819131;29;1309;-62
2021/04/17 14:55:57;;;;;;;;;;;;;;;17.17;53.87;100937.59;4820117;29;1575;-64
2021/04/17 14:58:23;;;;;;;;;;;;;;;17.18;53.99;100946.31;4820321;29;876;-64
2021/04/17 15:00:50;;;;;;;;;;;;;;;17.17;53.94;100944.63;4820177;29;1986;-66
2021/04/17 15:03:17;;;;;;;;;;;;;;;17.16;53.91;100946.41;4819962;29;1212;-66
2021/04/17 15:05:44;;;;;;;;;;;;;;;17.14;53.98;100947.41;4818345;29;1613;-69
2021/04/17 15:08:10;;;;;;;;;;;;;;;17.15;53.97;100954.38;4819957;29;1306;-66
2021/04/17 15:10:37;;;;;;;;;;;;;;;17.10;53.97;100951.09;4828282;29;1690;-68
2021/04/17 15:13:04;;;;;;;;;;;;;;;17.07;54.12;100952.13;4825869;29;1382;-68
2021/04/17 15:15:31;;;;;;;;;;;;;;;17.08;53.97;100963.50;4836451;29;816;-69
2021/04/17 15:17:58;;;;;;;;;;;;;;;17.08;54.13;100959.09;4826101;29;1304;-68
2021/04/17 15:20:25;;;;;;;;;;;;;;;17.07;53.95;100952.13;4818369;29;1979;-68
2021/04/17 15:23:19;;;;;;;;;;;;;;;17.06;54.40;100952.16;4818467;29;1275;-67
2021/04/17 15:25:48;;;;;;;;;;;;;;;17.14;54.24;100953.53;4820493;29;1224;-66
2021/04/17 15:28:15;;;;;;;;;;;;;;;17.12;54.10;100960.63;4831498;29;1778;-64
2021/04/17 15:30:42;;;;;;;;;;;;;;;17.04;53.87;100962.78;4831027;29;1119;-64
2021/04/17 15:33:09;;;;;;;;;;;;;;;17.03;53.96;100965.47;4821981;29;1341;-63
2021/04/17 15:35:47;;;;;;;;;;;;;;;17.01;54.08;100957.66;4819887;29;1278;-62
2021/04/17 15:38:21;;;;;;;;;;;;;;;17.01;54.08;100967.31;4835276;29;1243;-62
2021/04/17 15:40:51;;;;;;;;;;;;;;;17.01;53.85;100962.06;4839287;29;1931;-63
2021/04/17 15:43:17;;;;;;;;;;;;;;;17.03;53.85;100966.31;4840467;29;1496;-64
2021/04/17 15:45:44;;;;;;;;;;;;;;;17.00;53.80;100965.59;4826413;29;1206;-64
2021/04/17 15:48:10;;;;;;;;;;;;;;;16.99;53.66;100961.28;4821535;29;1322;-64
2021/04/17 15:50:36;;;;;;;;;;;;;;;17.01;53.05;100959.44;4821165;29;751;-65
2021/04/17 15:53:07;;;;;;;;;;;;;;;17.01;53.84;100962.06;4819626;29;1611;-65
2021/04/17 15:55:34;;;;;;;;;;;;;;;17.13;53.44;100969.38;4821556;29;745;-66
2021/04/17 16:16:03;;;;;;;;;;;;;;;17.31;58.81;100977.28;4839316;29;1225;-63
2021/04/17 16:18:29;;;;;;;;;;;;;;;17.31;55.94;100976.44;4839472;29;781;-62
2021/04/17 16:20:56;;;;;;;;;;;;;;;17.36;58.61;100975.28;4837685;29;1907;-62
2021/04/17 16:23:22;;;;;;;;;;;;;;;17.39;56.70;100972.50;4839382;29;802;-64
2021/04/17 16:25:48;;;;;;;;;;;;;;;17.35;52.94;100975.38;4836946;29;1197;-62
2021/04/17 16:28:15;;;;;;;;;;;;;;;17.20;55.13;100978.72;4838849;29;1310;-62
2021/04/17 16:30:41;;;;;;;;;;;;;;;17.14;55.28;100981.63;4839207;29;939;-62
2021/04/17 16:33:08;;;;;;;;;;;;;;;17.10;55.59;100980.06;4838574;29;1334;-61
2021/04/17 16:35:34;;;;;;;;;;;;;;;17.10;55.43;100982.69;4835823;29;1158;-62
2021/04/17 16:38:01;;;;;;;;;;;;;;;17.10;56.08;100974.78;4819095;29;1300;-62
2021/04/17 16:40:28;;;;;;;;;;;;;;;17.12;55.83;100983.47;4818939;29;1979;-62
2021/04/17 16:42:54;;;;;;;;;;;;;;;17.12;55.47;100989.59;4820088;29;1691;-61
2021/04/17 16:45:23;;;;;;;;;;;;;;;17.11;55.60;100987.91;4820943;29;776;-63
2021/04/17 16:47:50;;;;;;;;;;;;;;;17.12;55.18;100996.63;4820629;29;1315;-62
2021/04/17 16:50:18;;;;;;;;;;;;;;;17.08;55.72;100985.41;4820416;29;788;-62
2021/04/17 16:52:44;;;;;;;;;;;;;;;17.09;55.38;100986.25;4818622;29;1606;-63
2021/04/17 16:55:11;;;;;;;;;;;;;;;17.08;55.36;100979.28;4818657;29;1102;-61
2021/04/17 16:57:38;;;;;;;;;;;;;;;17.08;55.29;100974.03;4818530;29;1353;-63
2021/04/17 17:00:05;;;;;;;;;;;;;;;17.09;55.15;100986.25;4820259;29;1076;-62
2021/04/17 17:02:31;;;;;;;;;;;;;;;17.10;54.98;100999.34;4819708;29;1982;-61
2021/04/17 17:04:58;;;;;;;;;;;;;;;17.09;55.17;100995.00;4820218;29;903;-62
2021/04/17 17:07:25;;;;;;;;;;;;;;;17.10;55.09;100994.09;4820356;29;1294;-63
2021/04/17 17:09:51;;;;;;;;;;;;;;;17.11;54.75;100994.94;4820568;29;959;-63
2021/04/17 17:12:17;;;;;;;;;;;;;;;17.12;54.62;101004.53;4820143;29;1275;-64
2021/04/17 17:14:43;;;;;;;;;;;;;;;17.10;54.89;101001.97;4820094;29;944;-63
2021/04/17 17:17:10;;;;;;;;;;;;;;;17.09;54.83;101002.03;4820046;29;1221;-62
2021/04/17 17:19:37;;;;;;;;;;;;;;;17.12;54.44;101004.53;4819798;29;1615;-60
2021/04/17 17:22:03;;;;;;;;;;;;;;;17.09;54.64;101004.66;4819283;29;1982;-63
2021/04/17 17:24:30;;;;;;;;;;;;;;;17.12;53.41;101004.53;4818332;29;1766;-64
2021/04/17 17:26:56;;;;;;;;;;;;;;;17.13;53.77;101000.97;4819587;29;1270;-63
2021/04/17 17:29:23;;;;;;;;;;;;;;;17.11;54.25;101002.84;4819817;29;855;-62
2021/04/17 17:31:49;;;;;;;;;;;;;;;17.11;54.20;101002.84;4819488;29;1241;-63
2021/04/17 17:34:16;;;;;;;;;;;;;;;17.10;54.18;101001.13;4819704;29;796;-62
2021/04/17 17:36:43;;;;;;;;;;;;;;;17.07;53.92;100993.38;4831222;29;1369;-62
2021/04/17 17:39:10;;;;;;;;;;;;;;;17.07;54.25;100998.63;4837611;29;828;-63
2021/04/17 17:41:37;;;;;;;;;;;;;;;17.07;54.15;100990.72;4837501;29;1915;-66
2021/04/17 17:44:03;;;;;;;;;;;;;;;17.12;52.49;100986.09;4837970;29;1120;-64
2021/04/17 17:46:30;;;;;;;;;;;;;;;17.09;52.47;100988.88;4831843;29;1587;-63
2021/04/17 17:48:57;;;;;;;;;;;;;;;17.04;51.87;100985.59;4817201;29;784;-63
2021/04/17 17:51:23;;;;;;;;;;;;;;;17.07;54.10;100980.19;4816649;29;1561;-67
2021/04/17 17:53:50;;;;;;;;;;;;;;;17.05;53.17;100985.56;4817152;29;868;-66
2021/04/17 17:56:16;;;;;;;;;;;;;;;16.99;52.42;100979.72;4819605;29;1285;-65
2021/04/17 17:58:42;;;;;;;;;;;;;;;16.96;52.68;100979.84;4819726;29;745;-65
2021/04/17 18:01:08;;;;;;;;;;;;;;;16.97;54.80;100989.44;4819895;29;1931;-68
2021/04/17 18:03:38;;;;;;;;;;;;;;;16.96;54.19;100985.13;4816998;29;1204;-70
2021/04/17 18:06:06;;;;;;;;;;;;;;;16.95;52.56;100981.63;4818815;29;1270;-64
2021/04/17 18:08:32;;;;;;;;;;;;;;;16.96;53.24;100993.00;4818511;29;1275;-66
2021/04/17 18:10:59;;;;;;;;;;;;;;;16.89;52.99;100989.81;4818708;29;1284;-70
2021/04/17 18:13:25;;;;;;;;;;;;;;;16.84;54.33;100992.63;4818784;29;1287;-69
2021/04/17 18:15:52;;;;;;;;;;;;;;;16.90;53.56;100997.59;4818845;29;1258;-70
2021/04/17 18:18:18;;;;;;;;;;;;;;;16.88;52.72;101002.09;4817181;29;1346;-68
2021/04/17 18:20:46;;;;;;;;;;;;;;;16.90;54.43;100996.78;4818843;29;1977;-69
2021/04/17 18:23:13;;;;;;;;;;;;;;;16.86;53.26;100998.69;4818819;29;1292;-72
2021/04/17 18:25:42;;;;;;;;;;;;;;;16.85;53.01;100996.97;4818806;29;1053;-66
2021/04/17 18:28:09;;;;;;;;;;;;;;;16.89;53.97;101006.44;4818958;29;1373;-65
2021/04/17 18:30:35;;;;;;;;;;;;;;;16.90;53.63;101017.84;4818740;29;1215;-66
2021/04/17 18:33:01;;;;;;;;;;;;;;;16.89;53.99;101011.72;4818907;29;1289;-65
2021/04/17 18:35:28;;;;;;;;;;;;;;;16.87;53.51;101012.72;4818542;29;1342;-67
2021/04/17 18:37:56;;;;;;;;;;;;;;;16.86;53.04;101017.13;4818255;29;1314;-64
2021/04/17 18:40:22;;;;;;;;;;;;;;;16.86;54.13;101017.13;4816350;29;1911;-64
2021/04/17 18:42:49;;;;;;;;;;;;;;;16.86;53.61;101022.38;4801425;29;1516;-65
2021/04/17 18:45:16;;;;;;;;;;;;;;;16.84;52.84;101018.09;4817108;29;1252;-65
2021/04/17 18:47:43;;;;;;;;;;;;;;;16.86;54.16;101018.88;4818450;29;1284;-65
2021/04/17 18:50:11;;;;;;;;;;;;;;;17.05;54.33;101029.44;4817901;29;1219;-69
2021/04/17 18:52:37;;;;;;;;;;;;;;;17.13;52.93;101025.53;4817880;29;1357;-68
2021/04/17 18:55:04;;;;;;;;;;;;;;;17.28;54.96;101037.13;4816268;29;1291;-69
2021/04/17 18:57:30;;;;;;;;;;;;;;;17.32;54.79;101041.34;4817874;29;1290;-65
2021/04/17 18:59:57;;;;;;;;;;;;;;;17.42;54.87;101047.88;4816345;29;1243;-65
2021/04/17 19:02:24;;;;;;;;;;;;;;;17.35;55.01;101054.38;4816599;29;1935;-67
2021/04/17 19:04:51;;;;;;;;;;;;;;;17.38;55.12;101052.44;4818129;29;1235;-66
2021/04/17 19:07:17;;;;;;;;;;;;;;;17.52;54.79;101037.75;4817933;29;1302;-67
2021/04/17 19:09:43;;;;;;;;;;;;;;;17.69;53.98;101045.78;4819918;29;1139;-65
2021/04/17 19:12:10;;;;;;;;;;;;;;;17.76;53.53;101053.28;4819350;29;1637;-65
2021/04/17 19:14:37;;;;;;;;;;;;;;;17.84;53.15;101053.75;4819219;29;1061;-65
2021/04/17 19:17:04;;;;;;;;;;;;;;;17.93;52.46;101063.84;4821533;29;1333;-66
2021/04/17 19:19:31;;;;;;;;;;;;;;;17.98;52.15;101061.00;4822786;29;1365;-68
2021/04/17 19:21:58;;;;;;;;;;;;;;;17.99;51.98;101068.84;4822827;29;1911;-69
2021/04/17 19:24:24;;;;;;;;;;;;;;;17.96;51.82;101061.06;4822745;29;1223;-74
2021/04/17 19:26:51;;;;;;;;;;;;;;;18.12;51.52;101061.19;4820975;29;1355;-66
2021/04/17 19:29:17;;;;;;;;;;;;;;;18.14;51.58;101063.75;4822658;29;1222;-66
2021/04/17 19:31:44;;;;;;;;;;;;;;;18.22;51.56;101069.50;4822630;29;1379;-67
2021/04/17 19:34:10;;;;;;;;;;;;;;;18.21;52.01;101087.09;4822852;29;1278;-64
2021/04/17 19:36:37;;;;;;;;;;;;;;;18.17;53.03;101085.56;4822635;29;1294;-67
2021/04/17 19:39:03;;;;;;;;;;;;;;;18.16;53.98;101081.19;4822488;29;1222;-67
2021/04/17 19:41:30;;;;;;;;;;;;;;;18.21;54.44;101075.72;4820009;29;1919;-65
2021/04/17 19:43:57;;;;;;;;;;;;;;;18.16;55.28;101077.72;4822462;29;1180;-67
2021/04/17 19:46:23;;;;;;;;;;;;;;;18.20;55.39;101084.56;4820977;29;1304;-71
2021/04/17 19:48:49;;;;;;;;;;;;;;;18.22;55.93;101080.03;4820709;29;1417;-70
2021/04/17 19:51:16;;;;;;;;;;;;;;;18.18;56.34;101076.69;4822286;29;1282;-69
2021/04/17 19:53:42;;;;;;;;;;;;;;;18.16;56.38;101085.63;4822402;29;1250;-69
2021/04/17 19:56:09;;;;;;;;;;;;;;;18.17;56.56;101093.47;4823680;29;1300;-69
2021/04/17 19:58:35;;;;;;;;;;;;;;;18.26;56.75;101097.44;4823904;29;1112;-69
2021/04/17 20:01:01;;;;;;;;;;;;;;;18.31;56.71;101098.91;4820501;29;1900;-69
2021/04/17 20:03:28;;;;;;;;;;;;;;;18.22;56.75;101095.88;4821033;29;1138;-67
2021/04/17 20:05:57;;;;;;;;;;;;;;;18.15;56.42;101103.22;4821075;29;1364;-68
2021/04/17 20:08:26;;;;;;;;;;;;;;;18.17;56.24;101105.78;4822078;29;874;-68
2021/04/17 20:10:53;;;;;;;;;;;;;;;18.13;56.29;101104.22;4820249;29;1304;-68
2021/04/17 20:13:20;;;;;;;;;;;;;;;18.08;56.06;101106.25;4818963;29;1335;-68
2021/04/17 20:15:46;;;;;;;;;;;;;;;18.01;56.31;101100.41;4816725;29;1158;-68
2021/04/17 20:18:13;;;;;;;;;;;;;;;18.03;56.73;101094.13;4820852;29;1326;-67
2021/04/17 20:20:39;;;;;;;;;;;;;;;18.07;55.83;101101.88;4803594;29;1904;-69
2021/04/17 20:23:05;;;;;;;;;;;;;;;18.06;56.20;101098.38;4819674;29;1407;-68
2021/04/17 20:25:32;;;;;;;;;;;;;;;18.05;55.98;101101.13;4821736;29;980;-68
2021/04/17 20:28:18;;;;;;;;;;;;;;;18.06;55.87;101100.16;4821730;29;1321;-68
2021/04/17 20:30:45;;;;;;;;;;;;;;;18.08;55.85;101098.34;4805456;29;1386;-68
2021/04/17 20:33:11;;;;;;;;;;;;;;;18.05;55.85;101098.47;4821690;29;1240;-69
2021/04/17 20:35:37;;;;;;;;;;;;;;;18.12;56.63;101098.09;4821254;29;1561;-68
2021/04/17 20:38:04;;;;;;;;;;;;;;;18.16;55.98;101096.16;4832147;29;1484;-68
2021/04/17 20:40:31;;;;;;;;;;;;;;;18.16;55.93;101096.16;4831576;29;1313;-67
2021/04/17 20:42:57;;;;;;;;;;;;;;;18.16;56.17;101093.53;4823369;29;1913;-66
2021/04/17 20:45:23;;;;;;;;;;;;;;;18.16;55.93;101099.66;4838324;29;1018;-67
2021/04/17 20:47:49;;;;;;;;;;;;;;;18.17;56.49;101096.09;4820771;29;1298;-67
2021/04/17 20:50:15;;;;;;;;;;;;;;;18.22;56.19;101098.50;4820336;29;867;-67
2021/04/17 20:52:42;;;;;;;;;;;;;;;18.25;56.80;101103.63;4828490;29;1318;-65
2021/04/17 20:55:12;;;;;;;;;;;;;;;18.26;56.73;101106.19;4829455;29;941;-64
2021/04/17 20:57:38;;;;;;;;;;;;;;;18.31;56.68;101103.31;4819962;29;1375;-65
2021/04/17 21:00:06;;;;;;;;;;;;;;;18.30;56.94;101106.91;4820146;29;808;-65
2021/04/17 21:02:32;;;;;;;;;;;;;;;18.36;56.84;101122.44;4820080;29;2000;-65
2021/04/17 21:04:59;;;;;;;;;;;;;;;18.38;56.55;101120.56;4819000;29;832;-65
2021/04/17 21:07:25;;;;;;;;;;;;;;;18.41;56.53;101123.91;4819968;29;1288;-65
2021/04/17 21:09:51;;;;;;;;;;;;;;;18.41;56.89;101126.53;4822575;29;1182;-65
2021/04/17 21:12:18;;;;;;;;;;;;;;;18.44;56.60;101133.44;4829138;29;1289;-66
2021/04/17 21:14:44;;;;;;;;;;;;;;;18.43;56.61;101137.00;4820288;29;840;-66
2021/04/17 21:17:11;;;;;;;;;;;;;;;18.43;56.37;101139.63;4818478;29;1312;-65
2021/04/17 21:19:39;;;;;;;;;;;;;;;18.41;56.83;101139.72;4820464;29;815;-65
2021/04/17 21:22:11;;;;;;;;;;;;;;;18.41;56.42;101141.50;4819320;29;1903;-66
2021/04/17 21:24:38;;;;;;;;;;;;;;;18.41;56.49;101145.00;4817581;29;1494;-64
2021/04/17 21:27:04;;;;;;;;;;;;;;;18.39;57.24;101148.66;4819565;29;1247;-65
2021/04/17 21:29:31;;;;;;;;;;;;;;;18.35;57.09;101147.94;4820006;29;851;-66
2021/04/17 21:31:58;;;;;;;;;;;;;;;18.31;57.34;101151.66;4819615;29;1315;-65
2021/04/17 21:34:24;;;;;;;;;;;;;;;18.27;57.25;101149.25;4819726;29;824;-66
2021/04/17 21:36:51;;;;;;;;;;;;;;;18.23;57.20;101147.69;4819205;29;1359;-63
2021/04/17 21:39:51;;;;;;;;;;;;;;;18.22;57.34;101156.50;4816720;29;1571;-66
2021/04/17 21:42:18;;;;;;;;;;;;;;;18.21;57.47;101150.38;4816805;29;1982;-65
2021/04/17 21:44:44;;;;;;;;;;;;;;;18.16;57.36;101157.66;4809285;29;1407;-66
2021/04/17 21:47:11;;;;;;;;;;;;;;;18.13;57.35;101151.69;4808368;29;1551;-64
2021/04/17 21:49:37;;;;;;;;;;;;;;;18.15;57.32;101144.56;4816673;29;1437;-66
2021/04/17 21:52:04;;;;;;;;;;;;;;;18.16;57.34;101151.53;4815919;29;1606;-65
2021/04/17 21:54:30;;;;;;;;;;;;;;;18.08;57.85;101148.41;4816757;29;1536;-63
2021/04/17 21:56:56;;;;;;;;;;;;;;;18.06;58.40;101144.97;4816804;29;1303;-66
2021/04/17 21:59:22;;;;;;;;;;;;;;;18.03;58.61;101157.41;4816463;29;1073;-65
2021/04/17 22:01:50;;;;;;;;;;;;;;;18.00;58.59;101141.72;4819342;29;1917;-65
2021/04/17 22:04:17;;;;;;;;;;;;;;;17.98;58.97;101148.84;4819397;29;1606;-65
2021/04/17 22:06:44;;;;;;;;;;;;;;;17.95;58.78;101149.00;4819215;29;1387;-64
2021/04/17 22:09:10;;;;;;;;;;;;;;;17.95;59.21;101143.72;4819174;29;1006;-64
2021/04/17 22:11:37;;;;;;;;;;;;;;;17.95;58.76;101142.88;4819354;29;1282;-65
2021/04/17 22:14:03;;;;;;;;;;;;;;;17.93;59.07;101140.28;4819317;29;1010;-66
2021/04/17 22:16:29;;;;;;;;;;;;;;;17.91;59.00;101147.44;4819112;29;1319;-66
2021/04/17 22:18:56;;;;;;;;;;;;;;;17.91;59.18;101144.78;4819388;29;1130;-67
2021/04/17 22:21:22;;;;;;;;;;;;;;;17.87;59.40;101145.84;4817399;29;1923;-65
2021/04/17 22:23:49;;;;;;;;;;;;;;;17.89;59.20;101149.28;4817502;29;1022;-65
2021/04/17 22:26:16;;;;;;;;;;;;;;;17.85;59.08;101147.72;4818027;29;1274;-65
2021/04/17 22:28:42;;;;;;;;;;;;;;;17.85;59.19;101141.59;4818863;29;1569;-65
2021/04/17 22:31:09;;;;;;;;;;;;;;;17.86;59.13;101148.56;4818840;29;1614;-66
2021/04/17 22:33:37;;;;;;;;;;;;;;;17.84;59.12;101145.16;4817299;29;1050;-64
2021/04/17 22:36:05;;;;;;;;;;;;;;;17.84;59.26;101147.81;4816122;29;1927;-63
2021/04/17 22:38:31;;;;;;;;;;;;;;;17.81;59.29;101151.41;4818531;29;906;-65
2021/04/17 22:40:58;;;;;;;;;;;;;;;17.80;59.32;101144.44;4818542;29;1931;-63
2021/04/17 22:43:25;;;;;;;;;;;;;;;17.79;58.92;101147.16;4813952;29;1141;-65
2021/04/17 22:45:51;;;;;;;;;;;;;;;17.79;58.80;101149.78;4814277;29;1185;-63
2021/04/17 22:48:18;;;;;;;;;;;;;;;17.76;58.75;101152.56;4816784;29;1734;-65
2021/04/17 22:50:44;;;;;;;;;;;;;;;17.76;58.83;101148.16;4817159;29;1199;-64
2021/04/17 22:53:13;;;;;;;;;;;;;;;17.76;59.04;101150.78;4819307;29;1347;-64
2021/04/17 22:55:40;;;;;;;;;;;;;;;17.77;58.58;101155.13;4817759;29;1536;-64
2021/04/17 22:58:06;;;;;;;;;;;;;;;17.76;58.26;101161.31;4817396;29;1304;-64
2021/04/17 23:00:33;;;;;;;;;;;;;;;17.76;58.96;101165.72;4817091;29;1105;-65
2021/04/17 23:03:00;;;;;;;;;;;;;;;17.74;58.56;101171.09;4817617;29;1920;-65
2021/04/17 23:05:26;;;;;;;;;;;;;;;17.75;57.96;101171.94;4818780;29;906;-63
2021/04/17 23:07:52;;;;;;;;;;;;;;;17.74;58.58;101173.72;4818874;29;1403;-63
2021/04/17 23:10:21;;;;;;;;;;;;;;;17.72;58.39;101169.44;4818808;29;859;-64
2021/04/17 23:12:47;;;;;;;;;;;;;;;17.71;58.30;101173.00;4818865;29;1285;-66
2021/04/17 23:15:14;;;;;;;;;;;;;;;17.71;58.29;101170.38;4816912;29;1401;-67
2021/04/17 23:17:42;;;;;;;;;;;;;;;17.71;57.99;101173.00;4818724;29;1267;-66
2021/04/17 23:20:11;;;;;;;;;;;;;;;17.69;58.10;101180.13;4818591;29;836;-66
2021/04/17 23:22:57;;;;;;;;;;;;;;;17.65;57.78;101182.06;4817481;29;1943;-65
2021/04/17 23:25:23;;;;;;;;;;;;;;;17.68;58.08;101175.78;4818693;29;1315;-66
2021/04/17 23:27:50;;;;;;;;;;;;;;;17.65;57.91;101176.78;4818989;29;1292;-66
2021/04/17 23:30:16;;;;;;;;;;;;;;;17.65;57.95;101176.78;4818741;29;1203;-66
2021/04/17 23:32:46;;;;;;;;;;;;;;;17.64;57.86;101182.09;4818600;29;1381;-66
2021/04/17 23:35:13;;;;;;;;;;;;;;;17.66;57.54;101178.47;4818053;29;1149;-66
2021/04/17 23:37:39;;;;;;;;;;;;;;;17.64;57.78;101174.19;4819562;29;1282;-67
2021/04/17 23:40:06;;;;;;;;;;;;;;;17.61;57.43;101182.25;4819872;29;797;-66
2021/04/17 23:42:32;;;;;;;;;;;;;;;17.58;57.83;101177.97;4818124;29;1980;-64
2021/04/17 23:44:59;;;;;;;;;;;;;;;17.57;57.47;101173.63;4819747;29;817;-67
2021/04/17 23:47:25;;;;;;;;;;;;;;;17.57;57.47;101173.63;4819511;29;1398;-66
2021/04/17 23:49:51;;;;;;;;;;;;;;;17.55;57.51;101174.63;4819515;29;774;-66
2021/04/17 23:52:18;;;;;;;;;;;;;;;17.54;57.06;101168.44;4819675;29;1310;-65
2021/04/17 23:54:44;;;;;;;;;;;;;;;17.53;57.15;101169.41;4819476;29;1134;-66
2021/04/17 23:57:11;;;;;;;;;;;;;;;17.51;57.17;101165.97;4818039;29;1314;-65
2021/04/17 23:59:37;;;;;;;;;;;;;;;17.51;56.92;101165.97;4819639;29;753;-66
